createdAt,value
2023-04-19T00:00:30.604Z,97694.23
2023-04-19T00:03:03.665Z,97691.12
2023-04-19T00:05:38.703Z,97680.68
2023-04-19T00:08:11.714Z,97682.46
2023-04-19T00:10:44.669Z,97678.33
2023-04-19T00:13:17.612Z,97675.84
2023-04-19T00:15:50.744Z,97671.20
2023-04-19T00:18:40.377Z,97666.70
2023-04-19T00:21:12.915Z,97663.09
2023-04-19T00:23:46.039Z,97657.91
2023-04-19T00:26:18.724Z,97655.65
2023-04-19T00:28:55.410Z,97651.02
2023-04-19T00:31:28.032Z,97647.66
2023-04-19T00:34:01.644Z,97643.00
2023-04-19T00:36:32.259Z,97640.23
2023-04-19T00:39:05.203Z,97639.45
2023-04-19T00:41:37.890Z,97632.27
2023-04-19T00:44:11.391Z,97626.09
2023-04-19T00:46:44.606Z,97629.18
2023-04-19T00:49:15.382Z,97626.08
2023-04-19T00:51:48.841Z,97628.13
2023-04-19T00:54:20.513Z,97628.58
2023-04-19T00:56:55.522Z,97625.63
2023-04-19T00:59:30.102Z,97627.14
2023-04-19T01:02:02.802Z,97625.48
2023-04-19T01:04:36.487Z,97625.07
2023-04-19T01:07:07.773Z,97626.32
2023-04-19T01:09:44.807Z,97622.48
2023-04-19T01:12:17.693Z,97613.39
2023-04-19T01:14:51.983Z,97611.43
2023-04-19T01:17:27.688Z,97610.16
2023-04-19T01:20:06.515Z,97606.17
2023-04-19T01:22:40.750Z,97605.08
2023-04-19T01:25:13.892Z,97600.15
2023-04-19T01:27:48.657Z,97598.55
2023-04-19T01:30:21.931Z,97595.48
2023-04-19T01:32:54.777Z,97588.79
2023-04-19T01:35:27.332Z,97589.19
2023-04-19T01:38:00.564Z,97586.91
2023-04-19T01:40:33.412Z,97581.74
2023-04-19T01:43:05.990Z,97578.10
2023-04-19T01:45:39.193Z,97573.02
2023-04-19T01:48:12.579Z,97567.03
2023-04-19T01:50:43.361Z,97560.46
2023-04-19T01:53:16.675Z,97559.22
2023-04-19T01:55:49.507Z,97554.75
2023-04-19T01:58:22.198Z,97556.92
2023-04-19T02:00:55.613Z,97556.89
2023-04-19T02:03:32.916Z,97557.45
2023-04-19T02:06:05.816Z,97554.39
2023-04-19T02:08:38.644Z,97553.91
2023-04-19T02:11:16.376Z,97550.56
2023-04-19T02:13:49.165Z,97550.84
2023-04-19T02:16:21.875Z,97550.56
2023-04-19T02:18:55.757Z,97552.59
2023-04-19T02:21:28.813Z,97552.89
2023-04-19T02:24:01.565Z,97547.90
2023-04-19T02:26:34.452Z,97552.48
2023-04-19T02:29:07.221Z,97549.57
2023-04-19T02:31:39.895Z,97545.48
2023-04-19T02:34:15.491Z,97547.68
2023-04-19T02:36:48.251Z,97534.48
2023-04-19T02:39:20.935Z,97540.73
2023-04-19T02:41:54.002Z,97535.81
2023-04-19T02:44:26.902Z,97539.02
2023-04-19T02:46:59.599Z,97538.71
2023-04-19T02:49:37.430Z,97539.14
2023-04-19T02:52:10.324Z,97537.22
2023-04-19T02:54:44.840Z,97536.61
2023-04-19T02:57:17.890Z,97533.23
2023-04-19T02:59:51.283Z,97531.73
2023-04-19T03:02:23.963Z,97528.52
2023-04-19T03:04:57.039Z,97525.91
2023-04-19T03:07:29.980Z,97523.45
2023-04-19T03:10:02.714Z,97524.40
2023-04-19T03:12:37.097Z,97521.15
2023-04-19T03:15:12.593Z,97515.05
2023-04-19T03:17:45.188Z,97513.04
2023-04-19T03:20:18.815Z,97511.56
2023-04-19T03:22:51.763Z,97511.41
2023-04-19T03:25:25.215Z,97503.08
2023-04-19T03:28:04.402Z,97501.85
2023-04-19T03:31:01.573Z,97500.30
2023-04-19T03:33:34.284Z,97494.58
2023-04-19T03:36:07.748Z,97493.43
2023-04-19T03:38:44.330Z,97492.04
2023-04-19T03:41:25.859Z,97490.30
2023-04-19T03:44:21.260Z,97486.35
2023-04-19T03:46:53.983Z,97484.29
2023-04-19T03:49:29.689Z,97483.42
2023-04-19T03:52:10.390Z,97484.86
2023-04-19T03:54:44.851Z,97483.25
2023-04-19T03:57:28.760Z,97481.19
2023-04-19T04:00:07.440Z,97483.36
2023-04-19T04:02:44.676Z,97481.63
2023-04-19T04:05:19.344Z,97481.78
2023-04-19T04:07:51.843Z,97479.83
2023-04-19T04:10:24.913Z,97478.78
2023-04-19T04:12:57.915Z,97479.85
2023-04-19T04:15:36.999Z,97479.98
2023-04-19T04:18:13.675Z,97480.73
2023-04-19T04:20:46.996Z,97481.21
2023-04-19T04:23:21.947Z,97478.62
2023-04-19T04:26:02.127Z,97483.61
2023-04-19T04:29:01.121Z,97484.32
2023-04-19T04:31:36.284Z,97481.78
2023-04-19T04:34:11.030Z,97488.91
2023-04-19T04:36:51.032Z,97488.85
2023-04-19T04:39:25.361Z,97489.20
2023-04-19T04:42:02.595Z,97485.75
2023-04-19T04:44:43.186Z,97488.48
2023-04-19T04:47:42.439Z,97487.97
2023-04-19T04:50:19.317Z,97484.54
2023-04-19T04:52:54.563Z,97488.44
2023-04-19T04:55:31.464Z,97485.36
2023-04-19T04:58:06.125Z,97486.71
2023-04-19T05:00:58.706Z,97482.23
2023-04-19T05:03:33.881Z,97483.00
2023-04-19T05:06:08.974Z,97482.55
2023-04-19T05:08:42.549Z,97479.94
2023-04-19T05:11:22.994Z,97476.88
2023-04-19T05:13:56.253Z,97477.02
2023-04-19T05:16:29.789Z,97473.73
2023-04-19T05:19:03.721Z,97476.27
2023-04-19T05:21:39.750Z,97471.14
2023-04-19T05:24:14.108Z,97470.54
2023-04-19T05:26:47.200Z,97468.77
2023-04-19T05:29:21.039Z,97468.91
2023-04-19T05:31:56.315Z,97468.25
2023-04-19T05:34:33.985Z,97467.48
2023-04-19T05:37:07.671Z,97463.08
2023-04-19T05:39:43.576Z,97464.63
2023-04-19T05:42:16.841Z,97457.02
2023-04-19T05:44:50.857Z,97456.17
2023-04-19T05:47:23.583Z,97458.66
2023-04-19T05:50:18.583Z,97455.01
2023-04-19T05:52:58.765Z,97453.59
2023-04-19T05:55:32.349Z,97456.57
2023-04-19T05:58:04.981Z,97457.67
2023-04-19T06:00:38.502Z,97459.70
2023-04-19T06:03:14.561Z,97457.92
2023-04-19T06:05:55.671Z,97456.55
2023-04-19T06:08:32.101Z,97457.02
2023-04-19T06:11:19.858Z,97458.55
2023-04-19T06:13:59.301Z,97460.65
2023-04-19T06:16:32.312Z,97461.79
2023-04-19T06:19:05.628Z,97465.77
2023-04-19T06:21:38.419Z,97470.34
2023-04-19T06:24:12.563Z,97467.77
2023-04-19T06:26:45.213Z,97469.92
2023-04-19T06:29:20.717Z,97471.34
2023-04-19T06:31:54.711Z,97472.81
2023-04-19T06:34:28.181Z,97473.77
2023-04-19T06:37:02.731Z,97471.94
2023-04-19T06:39:37.255Z,97469.64
2023-04-19T06:42:12.932Z,97471.14
2023-04-19T06:44:46.208Z,97474.50
2023-04-19T06:47:18.822Z,97472.05
2023-04-19T06:49:51.925Z,97472.30
2023-04-19T06:52:24.879Z,97473.60
2023-04-19T06:54:57.933Z,97470.64
2023-04-19T06:57:30.577Z,97468.02
2023-04-19T07:00:04.250Z,97470.47
2023-04-19T07:02:37.424Z,97471.92
2023-04-19T07:05:14.175Z,97471.14
2023-04-19T07:07:46.692Z,97472.15
2023-04-19T07:10:19.925Z,97467.17
2023-04-19T07:12:52.689Z,97466.98
2023-04-19T07:15:26.190Z,97471.23
2023-04-19T07:17:59.029Z,97467.88
2023-04-19T07:20:32.987Z,97467.22
2023-04-19T07:23:06.144Z,97469.63
2023-04-19T07:25:38.946Z,97468.16
2023-04-19T07:28:12.015Z,97470.73
2023-04-19T07:30:46.600Z,97475.29
2023-04-19T07:33:19.401Z,97475.15
2023-04-19T07:35:52.227Z,97474.46
2023-04-19T07:38:43.709Z,97471.34
2023-04-19T07:41:16.588Z,97472.52
2023-04-19T07:43:49.356Z,97474.29
2023-04-19T07:46:24.432Z,97473.11
2023-04-19T07:48:56.950Z,97470.54
2023-04-19T07:51:29.727Z,97468.91
2023-04-19T07:54:02.925Z,97466.13
2023-04-19T07:56:35.976Z,97467.06
2023-04-19T07:59:09.794Z,97465.80
2023-04-19T08:01:44.411Z,97469.35
2023-04-19T08:04:19.453Z,97472.44
2023-04-19T08:06:53.435Z,97472.13
2023-04-19T08:09:26.139Z,97472.28
2023-04-19T08:11:59.586Z,97472.08
2023-04-19T08:14:40.476Z,97471.05
2023-04-19T08:17:25.135Z,97469.77
2023-04-19T08:19:59.810Z,97470.38
2023-04-19T08:22:33.105Z,97470.71
2023-04-19T08:25:05.999Z,97472.08
2023-04-19T08:27:40.987Z,97472.05
2023-04-19T08:30:15.393Z,97472.17
2023-04-19T08:32:48.522Z,97473.73
2023-04-19T08:35:22.708Z,97471.91
2023-04-19T08:37:56.070Z,97474.16
2023-04-19T08:40:30.117Z,97475.02
2023-04-19T08:43:07.554Z,97471.58
2023-04-19T08:45:41.342Z,97474.00
2023-04-19T08:48:15.382Z,97473.46
2023-04-19T08:51:03.476Z,97473.61
2023-04-19T08:53:39.049Z,97476.14
2023-04-19T08:56:24.021Z,97475.17
2023-04-19T08:59:15.666Z,97474.54
2023-04-19T09:01:50.989Z,97478.02
2023-04-19T09:04:36.188Z,97477.88
2023-04-19T09:07:24.208Z,97477.21
2023-04-19T09:10:12.410Z,97475.74
2023-04-19T09:12:46.050Z,97472.64
2023-04-19T09:15:37.928Z,97473.14
2023-04-19T09:18:12.267Z,97472.45
2023-04-19T09:20:46.681Z,97469.35
2023-04-19T09:23:22.551Z,97473.70
2023-04-19T09:26:22.143Z,97473.88
2023-04-19T09:29:00.913Z,97475.69
2023-04-19T09:31:50.831Z,97475.17
2023-04-19T09:34:24.998Z,97475.75
2023-04-19T09:37:11.765Z,97475.57
2023-04-19T09:39:47.843Z,97480.91
2023-04-19T09:42:42.281Z,97481.56
2023-04-19T09:48:05.688Z,97477.77
2023-04-19T09:51:01.765Z,97483.16
2023-04-19T09:53:37.183Z,97485.36
2023-04-19T09:56:09.334Z,97484.33
2023-04-19T09:58:49.974Z,97487.03
2023-04-19T10:01:27.143Z,97488.39
2023-04-19T10:04:13.744Z,97489.90
2023-04-19T10:07:19.444Z,97490.48
2023-04-19T10:09:53.064Z,97491.60
2023-04-19T10:15:05.881Z,97489.33
2023-04-19T10:17:38.690Z,97487.96
2023-04-19T10:20:19.810Z,97489.77
2023-04-19T10:22:53.532Z,97489.05
2023-04-19T10:25:32.254Z,97485.77
2023-04-19T10:28:05.626Z,97484.61
2023-04-19T10:30:37.254Z,97483.05
2023-04-19T10:33:10.641Z,97478.38
2023-04-19T10:35:48.788Z,97479.66
2023-04-19T10:38:21.730Z,97482.61
2023-04-19T10:41:02.735Z,97481.80
2023-04-19T10:43:36.386Z,97479.48
2023-04-19T10:46:10.001Z,97481.80
2023-04-19T10:48:54.127Z,97480.20
2023-04-19T10:51:30.651Z,97477.09
2023-04-19T10:54:04.382Z,97477.38
2023-04-19T10:57:02.971Z,97479.36
2023-04-19T10:59:36.930Z,97479.44
2023-04-19T11:02:34.100Z,97482.20
2023-04-19T11:05:07.692Z,97482.56
2023-04-19T11:07:42.671Z,97479.52
2023-04-19T11:10:29.150Z,97478.46
2023-04-19T11:13:02.508Z,97479.33
2023-04-19T11:15:35.376Z,97480.96
2023-04-19T11:18:12.877Z,97482.56
2023-04-19T11:20:54.949Z,97482.67
2023-04-19T11:23:28.068Z,97480.20
2023-04-19T11:26:01.052Z,97476.98
2023-04-19T11:28:34.666Z,97478.90
2023-04-19T11:31:08.591Z,97476.84
2023-04-19T11:33:41.292Z,97476.25
2023-04-19T11:36:16.815Z,97475.27
2023-04-19T11:38:52.226Z,97469.95
2023-04-19T11:41:25.053Z,97469.45
2023-04-19T11:43:58.226Z,97471.40
2023-04-19T11:46:30.829Z,97465.68
2023-04-19T11:49:03.602Z,97468.63
2023-04-19T11:51:37.811Z,97465.88
2023-04-19T11:54:18.937Z,97464.62
2023-04-19T11:57:08.674Z,97462.52
2023-04-19T11:59:41.674Z,97462.45
2023-04-19T12:02:13.489Z,97460.35
2023-04-19T12:04:46.712Z,97460.02
2023-04-19T12:07:20.799Z,97462.30
2023-04-19T12:09:56.420Z,97464.77
2023-04-19T12:12:38.487Z,97464.27
2023-04-19T12:15:13.036Z,97470.67
2023-04-19T12:18:03.238Z,97469.72
2023-04-19T12:20:37.703Z,97472.83
2023-04-19T12:23:14.133Z,97476.93
2023-04-19T12:25:49.215Z,97474.80
2023-04-19T12:28:21.933Z,97478.27
2023-04-19T12:30:55.096Z,97476.38
2023-04-19T12:33:30.805Z,97475.52
2023-04-19T12:36:03.732Z,97477.23
2023-04-19T12:38:39.785Z,97480.14
2023-04-19T12:41:13.602Z,97480.02
2023-04-19T12:43:47.039Z,97480.80
2023-04-19T12:46:26.437Z,97483.20
2023-04-19T12:48:59.232Z,97484.38
2023-04-19T12:51:33.688Z,97486.56
2023-04-19T12:54:07.944Z,97487.58
2023-04-19T12:56:42.055Z,97481.85
2023-04-19T12:59:16.487Z,97476.98
2023-04-19T13:01:50.197Z,97477.62
2023-04-19T13:04:23.967Z,97477.36
2023-04-19T13:06:57.058Z,97470.69
2023-04-19T13:09:32.687Z,97469.04
2023-04-19T13:12:06.032Z,97470.80
2023-04-19T13:14:36.924Z,97470.39
2023-04-19T13:17:09.714Z,97470.52
2023-04-19T13:19:43.158Z,97473.33
2023-04-19T13:22:16.508Z,97471.23
2023-04-19T13:24:49.706Z,97472.02
2023-04-19T13:27:23.064Z,97475.60
2023-04-19T13:29:56.755Z,97478.84
2023-04-19T13:32:29.837Z,97478.92
2023-04-19T13:35:02.886Z,97484.67
2023-04-19T13:37:35.459Z,97485.20
2023-04-19T13:40:18.770Z,97485.16
2023-04-19T13:42:55.660Z,97481.85
2023-04-19T13:45:34.808Z,97482.97
2023-04-19T13:48:13.081Z,97480.55
2023-04-19T13:50:51.221Z,97484.83
2023-04-19T13:53:24.841Z,97487.17
2023-04-19T13:56:00.335Z,97488.08
2023-04-19T13:58:33.902Z,97488.86
2023-04-19T14:01:06.828Z,97486.98
2023-04-19T14:03:39.978Z,97487.91
2023-04-19T14:06:12.829Z,97487.80
2023-04-19T14:08:46.728Z,97483.71
2023-04-19T14:11:19.741Z,97483.55
2023-04-19T14:13:52.742Z,97484.45
2023-04-19T14:16:26.648Z,97482.79
2023-04-19T14:19:03.191Z,97484.81
2023-04-19T14:21:36.146Z,97487.33
2023-04-19T14:24:10.102Z,97486.89
2023-04-19T14:26:44.687Z,97486.77
2023-04-19T14:29:17.554Z,97484.96
2023-04-19T14:31:50.625Z,97484.84
2023-04-19T14:34:23.423Z,97488.27
2023-04-19T14:36:56.190Z,97483.54
2023-04-19T14:39:29.569Z,97483.46
2023-04-19T14:42:00.668Z,97487.41
2023-04-19T14:44:33.483Z,97487.08
2023-04-19T14:47:05.771Z,97488.03
2023-04-19T14:49:38.959Z,97488.45
2023-04-19T14:52:22.050Z,97492.27
2023-04-19T14:55:02.879Z,97494.81
2023-04-19T14:57:37.809Z,97503.16
2023-04-19T15:00:17.249Z,97501.11
2023-04-19T15:02:53.765Z,97504.89
2023-04-19T15:05:32.401Z,97503.06
2023-04-19T15:08:20.198Z,97505.16
2023-04-19T15:11:03.182Z,97502.61
2023-04-19T15:13:36.185Z,97505.23
2023-04-19T15:16:13.179Z,97507.46
2023-04-19T15:18:46.708Z,97514.84
2023-04-19T15:21:24.574Z,97518.05
2023-04-19T15:23:57.674Z,97519.80
2023-04-19T15:26:31.933Z,97521.08
2023-04-19T15:29:04.684Z,97521.66
2023-04-19T15:31:37.594Z,97517.94
2023-04-19T15:34:10.561Z,97514.89
2023-04-19T15:36:43.693Z,97513.42
2023-04-19T15:39:15.384Z,97517.63
2023-04-19T15:41:48.375Z,97518.82
2023-04-19T15:44:21.279Z,97517.75
2023-04-19T15:46:54.382Z,97521.66
2023-04-19T15:49:27.985Z,97520.77
2023-04-19T15:52:00.771Z,97519.86
2023-04-19T15:54:33.846Z,97523.16
2023-04-19T15:57:07.185Z,97520.02
2023-04-19T15:59:40.143Z,97523.56
2023-04-19T16:02:14.556Z,97522.77
2023-04-19T16:04:50.164Z,97519.49
2023-04-19T16:07:24.332Z,97525.15
2023-04-19T16:09:59.725Z,97521.40
2023-04-19T16:12:35.421Z,97521.14
2023-04-19T16:15:09.819Z,97522.59
2023-04-19T16:17:42.866Z,97525.52
2023-04-19T16:20:16.358Z,97525.02
2023-04-19T16:22:49.679Z,97527.49
2023-04-19T16:25:21.180Z,97530.98
2023-04-19T16:27:54.020Z,97532.34
2023-04-19T16:30:30.371Z,97532.23
2023-04-19T16:33:03.257Z,97527.00
2023-04-19T16:35:36.093Z,97528.01
2023-04-19T16:38:08.933Z,97525.65
2023-04-19T16:40:49.114Z,97525.27
2023-04-19T16:43:22.774Z,97522.66
2023-04-19T16:45:55.529Z,97519.73
2023-04-19T16:48:28.573Z,97522.37
2023-04-19T16:51:01.553Z,97527.23
2023-04-19T16:53:34.552Z,97532.14
2023-04-19T16:56:07.796Z,97527.34
2023-04-19T16:58:41.313Z,97524.05
2023-04-19T17:01:15.518Z,97525.20
2023-04-19T17:03:50.623Z,97528.25
2023-04-19T17:06:24.643Z,97530.28
2023-04-19T17:08:57.502Z,97536.63
2023-04-19T17:11:33.073Z,97532.38
2023-04-19T17:14:06.232Z,97537.78
2023-04-19T17:16:39.081Z,97539.27
2023-04-19T17:19:11.730Z,97542.98
2023-04-19T17:21:46.351Z,97545.85
2023-04-19T17:24:19.357Z,97549.07
2023-04-19T17:26:52.170Z,97551.59
2023-04-19T17:29:39.124Z,97558.35
2023-04-19T17:32:16.588Z,97561.42
2023-04-19T17:35:10.622Z,97565.05
2023-04-19T17:37:53.025Z,97567.77
2023-04-19T17:40:29.945Z,97569.02
2023-04-19T17:43:04.595Z,97574.51
2023-04-19T17:45:39.726Z,97574.00
2023-04-19T17:48:14.095Z,97577.70
2023-04-19T17:50:47.390Z,97578.59
2023-04-19T17:53:21.307Z,97586.36
2023-04-19T17:55:54.297Z,97590.87
2023-04-19T17:58:27.030Z,97593.98
2023-04-19T18:01:04.725Z,97592.52
2023-04-19T18:03:38.610Z,97599.88
2023-04-19T18:06:12.401Z,97599.09
2023-04-19T18:08:47.827Z,97605.08
2023-04-19T18:11:23.001Z,97605.16
2023-04-19T18:13:56.134Z,97611.51
2023-04-19T18:16:29.581Z,97616.11
2023-04-19T18:19:02.572Z,97618.62
2023-04-19T18:21:38.025Z,97623.00
2023-04-19T18:24:12.482Z,97625.78
2023-04-19T18:26:47.586Z,97628.08
2023-04-19T18:29:21.298Z,97631.45
2023-04-19T18:31:56.291Z,97629.14
2023-04-19T18:34:29.868Z,97626.65
2023-04-19T18:37:06.393Z,97625.61
2023-04-19T18:39:39.536Z,97622.54
2023-04-19T18:42:13.801Z,97621.19
2023-04-19T18:44:54.329Z,97627.11
2023-04-19T18:47:29.900Z,97626.80
2023-04-19T18:50:05.246Z,97626.45
2023-04-19T18:52:40.411Z,97628.00
2023-04-19T18:55:15.888Z,97630.11
2023-04-19T18:57:49.138Z,97629.84
2023-04-19T19:00:23.027Z,97630.73
2023-04-19T19:02:55.858Z,97633.67
2023-04-19T19:05:30.803Z,97632.70
2023-04-19T19:08:04.713Z,97637.56
2023-04-19T19:11:07.214Z,97639.63
2023-04-19T19:13:30.461Z,97638.08
2023-04-19T19:16:03.472Z,97642.03
2023-04-19T19:18:36.625Z,97638.93
2023-04-19T19:21:09.852Z,97643.20
2023-04-19T19:23:43.924Z,97642.02
2023-04-19T19:26:16.984Z,97645.31
2023-04-19T19:28:51.112Z,97649.27
2023-04-19T19:31:32.821Z,97652.58
2023-04-19T19:34:30.582Z,97651.92
2023-04-19T19:37:03.472Z,97651.25
2023-04-19T19:39:36.091Z,97652.48
2023-04-19T19:42:09.067Z,97651.81
2023-04-19T19:44:42.228Z,97657.89
2023-04-19T19:47:17.254Z,97659.10
2023-04-19T19:50:34.986Z,97659.27
2023-04-19T19:52:45.344Z,97658.38
2023-04-19T19:55:18.279Z,97663.05
2023-04-19T20:03:06.607Z,97663.03
2023-04-19T20:05:39.909Z,97662.04
2023-04-19T20:08:15.444Z,97664.31
2023-04-19T20:10:48.102Z,97660.24
2023-04-19T20:13:21.010Z,97662.02
2023-04-19T20:15:53.855Z,97663.06
2023-04-19T20:18:27.047Z,97663.76
2023-04-19T20:21:00.729Z,97664.63
2023-04-19T20:23:33.548Z,97667.05
2023-04-19T20:26:06.219Z,97668.28
2023-04-19T20:28:38.842Z,97665.00
2023-04-19T20:31:11.689Z,97663.64
2023-04-19T20:33:47.494Z,97664.84
2023-04-19T20:36:22.969Z,97662.29
2023-04-19T20:39:06.715Z,97660.28
2023-04-19T20:41:39.901Z,97659.61
2023-04-19T20:44:13.368Z,97663.96
2023-04-19T20:46:48.133Z,97665.19
2023-04-19T20:49:22.895Z,97663.58
2023-04-19T20:51:57.569Z,97666.48
2023-04-19T20:54:31.268Z,97665.27
2023-04-19T20:57:05.184Z,97663.27
2023-04-19T20:59:38.105Z,97665.55
2023-04-19T21:02:12.068Z,97668.16
2023-04-19T21:04:44.827Z,97669.73
2023-04-19T21:07:17.583Z,97668.89
2023-04-19T21:09:50.959Z,97672.18
2023-04-19T21:12:23.437Z,97673.70
2023-04-19T21:14:56.236Z,97672.45
2023-04-19T21:17:29.298Z,97671.77
2023-04-19T21:20:02.810Z,97673.33
2023-04-19T21:22:35.650Z,97673.88
2023-04-19T21:25:10.426Z,97671.63
2023-04-19T21:27:44.056Z,97674.03
2023-04-19T21:30:17.577Z,97673.52
2023-04-19T21:32:52.118Z,97669.71
2023-04-19T21:35:25.397Z,97668.16
2023-04-19T21:37:57.955Z,97670.52
2023-04-19T21:40:31.421Z,97669.52
2023-04-19T21:43:05.621Z,97662.99
2023-04-19T21:45:38.401Z,97666.97
2023-04-19T21:48:11.522Z,97667.00
2023-04-19T21:50:44.374Z,97666.64
2023-04-19T21:53:16.983Z,97667.52
2023-04-19T21:55:51.890Z,97668.07
2023-04-19T21:58:24.722Z,97670.30
2023-04-19T22:00:57.414Z,97669.61
2023-04-19T22:03:30.498Z,97666.04
2023-04-19T22:06:03.872Z,97664.18
2023-04-19T22:08:38.078Z,97663.84
2023-04-19T22:11:10.563Z,97664.42
2023-04-19T22:13:44.594Z,97664.63
2023-04-19T22:16:17.570Z,97667.04
2023-04-19T22:18:50.793Z,97666.02
2023-04-19T22:21:23.715Z,97665.81
2023-04-19T22:23:56.682Z,97667.02
2023-04-19T22:26:29.603Z,97667.14
2023-04-19T22:29:02.606Z,97667.44
2023-04-19T22:31:35.336Z,97671.21
2023-04-19T22:34:08.289Z,97669.27
2023-04-19T22:36:40.907Z,97668.58
2023-04-19T22:39:14.122Z,97667.98
2023-04-19T22:41:46.870Z,97668.68
2023-04-19T22:44:19.436Z,97669.35
2023-04-19T22:46:52.248Z,97666.47
2023-04-19T22:49:25.200Z,97670.56
2023-04-19T22:51:58.768Z,97670.04
2023-04-19T22:54:29.486Z,97666.62
2023-04-19T22:57:02.179Z,97668.40
2023-04-19T22:59:34.918Z,97669.77
2023-04-19T23:02:09.083Z,97673.00
2023-04-19T23:04:42.001Z,97673.52
2023-04-19T23:07:14.538Z,97670.94
2023-04-19T23:09:47.724Z,97671.46
2023-04-19T23:12:20.193Z,97674.02
2023-04-19T23:14:54.044Z,97671.60
2023-04-19T23:17:25.478Z,97667.11
2023-04-19T23:19:58.659Z,97668.89
2023-04-19T23:22:31.129Z,97669.25
2023-04-19T23:25:04.016Z,97668.73
2023-04-19T23:27:36.995Z,97667.55
2023-04-19T23:30:11.608Z,97670.27
2023-04-19T23:32:44.153Z,97664.12
2023-04-19T23:35:17.169Z,97661.98
2023-04-19T23:37:49.636Z,97657.92
2023-04-19T23:40:23.000Z,97655.24
2023-04-19T23:42:55.617Z,97655.10
2023-04-19T23:45:28.939Z,97656.29
2023-04-19T23:48:01.671Z,97655.27
2023-04-19T23:50:34.611Z,97653.54
2023-04-19T23:53:07.633Z,97651.66
2023-04-19T23:55:40.683Z,97650.30
2023-04-19T23:58:13.294Z,97651.86
